Time;durP1;ratioP1;P1;durP2;ratioP2;P2;SDS_P1;SDS_P2;PMS_P1;PMS_P2;Temp;Humidity;BMP_temperature;BMP_pressure;BME280_temperature;BME280_humidity;BME280_pressure;Samples;Min_cycle;Max_cycle;Signal;HPM_P1;HPM_P2
2022/04/09 00:01:10;;;;;;;13.25;3.10;;;;;;;2.74;87.66;100434.97;4682157;30;20128;-85
2022/04/09 00:03:36;;;;;;;17.02;3.67;;;;;;;2.73;87.89;100435.88;4683303;30;20042;-84
2022/04/09 00:06:14;;;;;;;17.77;3.40;;;;;;;2.56;88.04;100411.84;4683227;30;20096;-82
2022/04/09 00:08:47;;;;;;;16.20;3.00;;;;;;;2.73;88.00;100448.59;4682162;30;20030;-84
2022/04/09 00:11:18;;;;;;;15.25;3.50;;;;;;;2.76;88.00;100451.06;4683103;30;20058;-80
2022/04/09 00:13:43;;;;;;;16.20;3.55;;;;;;;2.47;87.97;100411.34;4683006;30;20510;-80
2022/04/09 00:16:09;;;;;;;18.05;3.33;;;;;;;2.61;87.34;100442.25;4681986;30;20046;-80
2022/04/09 00:29:29;;;;;;;12.30;2.50;;;;;;;2.81;87.04;100489.97;4348646;25;20051;-81
2022/04/09 00:31:54;;;;;;;12.52;2.80;;;;;;;1.55;86.77;100292.34;4648590;30;20617;-81
2022/04/09 00:34:19;;;;;;;16.15;4.65;;;;;;;2.36;86.88;100423.63;4648742;30;20133;-81
2022/04/09 00:36:45;;;;;;;14.63;2.58;;;;;;;1.97;86.88;100368.94;4648904;30;20069;-82
2022/04/09 00:40:06;;;;;;;14.57;2.92;;;;;;;2.78;87.20;100493.47;4648756;30;20097;-81
2022/04/09 00:42:37;;;;;;;16.80;3.17;;;;;;;1.78;87.12;100339.91;4648596;30;20046;-81
2022/04/09 00:45:05;;;;;;;19.10;3.10;;;;;;;2.75;87.10;100513.13;4648928;30;20039;-86
2022/04/09 00:47:35;;;;;;;14.90;2.95;;;;;;;2.66;87.30;100508.38;4648584;30;20113;-87
2022/04/09 00:50:02;;;;;;;16.20;3.05;;;;;;;2.50;87.25;100488.50;4633218;30;20114;-83
2022/04/09 00:52:28;;;;;;;16.40;2.92;;;;;;;2.69;87.19;100514.19;4646944;30;20056;-86
2022/04/09 00:54:55;;;;;;;14.90;3.78;;;;;;;2.68;87.38;100525.28;4648410;30;20039;-81
2022/04/09 00:57:25;;;;;;;17.27;2.88;;;;;;;2.29;86.97;100471.44;4648536;30;20469;-81
2022/04/09 00:59:53;;;;;;;12.90;3.08;;;;;;;2.64;87.34;100533.91;4648365;30;20050;-84
2022/04/09 01:02:18;;;;;;;16.35;2.83;;;;;;;2.58;87.10;100529.88;4647268;30;20065;-81
2022/04/09 01:04:50;;;;;;;12.45;2.85;;;;;;;2.51;86.83;100515.66;4648451;30;20445;-81
2022/04/09 01:07:15;;;;;;;19.75;3.22;;;;;;;2.50;86.74;100519.09;4648337;30;20034;-82
2022/04/09 01:09:44;;;;;;;14.07;2.70;;;;;;;2.46;87.02;100512.44;4648276;30;20035;-81
2022/04/09 01:12:10;;;;;;;14.25;2.90;;;;;;;2.64;86.76;100554.28;4648310;30;20038;-88
2022/04/09 01:14:36;;;;;;;10.48;3.22;;;;;;;2.46;87.03;100526.88;4648314;30;20118;-81
2022/04/09 02:02:56;;;;;;;13.95;3.25;;;;;;;1.55;89.96;100563.78;1587128;25;20536;-81
2022/04/09 02:06:05;;;;;;;13.32;2.67;;;;;;;1.97;89.58;100643.97;4683226;30;20049;-81
2022/04/09 02:11:59;;;;;;;17.88;2.88;;;;;;;0.84;89.73;100476.84;4685089;30;20076;-82
2022/04/09 02:17:49;;;;;;;16.17;3.00;;;;;;;1.89;89.76;100658.63;5493769;25;20582;-81
2022/04/09 02:20:14;;;;;;;14.80;2.88;;;;;;;1.59;89.73;100613.72;4668019;30;20105;-81
2022/04/09 02:22:48;;;;;;;19.13;3.20;;;;;;;1.71;89.87;100634.56;4667707;30;20476;-81
2022/04/09 02:25:16;;;;;;;20.13;3.10;;;;;;;1.98;89.77;100671.09;4667726;30;20436;-81
2022/04/09 02:27:45;;;;;;;14.10;2.83;;;;;;;1.82;89.87;100652.06;4667931;30;20105;-82
2022/04/09 02:30:12;;;;;;;13.50;3.30;;;;;;;1.99;89.58;100680.41;4667767;30;20031;-81
2022/04/09 02:32:45;;;;;;;15.27;2.85;;;;;;;1.87;89.44;100659.53;4667647;30;20042;-82
2022/04/09 02:35:11;;;;;;;13.00;3.25;;;;;;;1.73;89.28;100648.06;4667784;30;20061;-81
2022/04/09 02:37:43;;;;;;;11.82;3.05;;;;;;;1.80;89.19;100661.47;4667461;30;20026;-80
2022/04/09 02:40:09;;;;;;;;;;;;;;;1.97;88.88;100697.44;4667802;30;20027;-81
2022/04/09 02:42:39;;;;;;;13.48;2.50;;;;;;;2.03;88.75;100693.03;4667401;30;19975;-82
2022/04/09 02:45:08;;;;;;;11.88;2.78;;;;;;;2.09;88.75;100697.97;4667258;30;20038;-80
2022/04/09 02:47:33;;;;;;;11.75;2.72;;;;;;;1.88;88.27;100645.97;4667387;30;20058;-80
2022/04/09 02:50:25;;;;;;;7.68;2.35;;;;;;;2.33;87.62;100714.19;4667276;30;20526;-81
2022/04/09 02:53:14;;;;;;;11.15;2.40;;;;;;;2.43;86.94;100711.31;4667131;30;20042;-81
2022/04/09 02:56:29;;;;;;;8.35;1.73;;;;;;;2.48;86.54;100722.22;4681242;25;20088;-80
2022/04/09 02:58:56;;;;;;;10.20;2.25;;;;;;;2.44;85.79;100722.34;4701267;30;20476;-81
2022/04/09 03:01:24;;;;;;;11.70;1.80;;;;;;;1.43;85.25;100545.47;4701589;30;20124;-82
2022/04/09 03:03:55;;;;;;;10.52;1.92;;;;;;;1.31;85.54;100545.00;4701627;30;20026;-82
2022/04/09 03:06:21;;;;;;;8.75;2.05;;;;;;;1.28;84.90;100539.97;4701449;30;20116;-82
2022/04/09 03:08:46;;;;;;;9.20;1.73;;;;;;;2.44;85.22;100730.81;4701084;30;20440;-81
2022/04/09 03:11:12;;;;;;;10.13;1.90;;;;;;;2.04;84.78;100674.31;4701476;30;20030;-82
2022/04/09 03:13:37;;;;;;;12.48;2.38;;;;;;;2.40;85.12;100748.81;4685605;30;20050;-81
2022/04/09 03:16:03;;;;;;;11.10;1.90;;;;;;;2.24;85.22;100728.88;4700034;30;20036;-81
2022/04/09 03:18:30;;;;;;;11.48;2.38;;;;;;;2.17;85.54;100719.78;4701147;30;20036;-81
2022/04/09 03:20:56;;;;;;;9.57;2.00;;;;;;;2.05;85.82;100714.19;4701031;30;20037;-81
2022/04/09 03:23:21;;;;;;;9.90;1.95;;;;;;;2.28;85.67;100753.41;4700932;30;20099;-81
2022/04/09 03:25:52;;;;;;;9.82;1.90;;;;;;;2.23;85.76;100759.50;4701029;30;20124;-84
2022/04/09 03:28:18;;;;;;;10.20;2.03;;;;;;;1.79;85.91;100687.78;4681351;25;20479;-81
2022/04/09 03:30:44;;;;;;;8.50;2.33;;;;;;;2.15;86.49;100757.19;4666868;30;20038;-81
2022/04/09 03:33:12;;;;;;;13.85;2.42;;;;;;;1.92;86.70;100722.19;4666609;30;20042;-80
2022/04/09 03:35:37;;;;;;;16.33;2.50;;;;;;;1.67;86.76;100698.31;4679429;30;20050;-81
2022/04/09 03:38:03;;;;;;;9.93;1.80;;;;;;;1.95;86.60;100739.94;4666818;30;20511;-82
2022/04/09 03:40:28;;;;;;;8.45;1.92;;;;;;;1.62;87.01;100706.09;4666371;30;20041;-81
2022/04/09 03:42:54;;;;;;;11.32;2.20;;;;;;;1.55;87.26;100699.50;4666326;30;20274;-80
2022/04/09 03:45:22;;;;;;;11.68;2.60;;;;;;;1.71;87.64;100733.84;4666646;30;20603;-81
2022/04/09 03:47:48;;;;;;;9.07;1.92;;;;;;;1.90;87.98;100777.44;4666213;30;20185;-81
2022/04/09 03:50:14;;;;;;;14.85;2.67;;;;;;;1.86;88.25;100786.00;4666558;30;20105;-81
2022/04/09 03:52:40;;;;;;;10.32;2.42;;;;;;;1.72;88.74;100766.03;4666268;30;20039;-79
2022/04/09 03:55:07;;;;;;;10.38;2.47;;;;;;;1.68;89.28;100776.38;4665471;30;20126;-81
2022/04/09 03:57:32;;;;;;;12.35;2.28;;;;;;;1.32;89.61;100725.56;4666257;30;20118;-81
2022/04/09 03:59:57;;;;;;;16.73;2.97;;;;;;;1.68;89.87;100792.47;4666192;30;20521;-81
2022/04/09 04:02:23;;;;;;;9.93;2.70;;;;;;;1.51;89.90;100784.44;4666387;30;20030;-81
2022/04/09 04:04:49;;;;;;;11.90;2.38;;;;;;;1.41;90.31;100778.75;4666277;30;20030;-81
2022/04/09 04:07:20;;;;;;;15.82;2.53;;;;;;;1.12;90.67;100730.34;4666265;30;20035;-81
2022/04/09 04:09:46;;;;;;;14.60;2.70;;;;;;;1.21;91.24;100758.09;4665731;30;20042;-82
2022/04/09 04:12:11;;;;;;;16.85;2.85;;;;;;;1.28;90.59;100774.00;4666044;30;20072;-82
2022/04/09 04:14:36;;;;;;;15.45;2.80;;;;;;;1.05;91.05;100747.47;4664732;30;20086;-82
2022/04/09 04:17:02;;;;;;;11.63;2.80;;;;;;;1.48;91.03;100821.88;4665912;30;20052;-81
2022/04/09 04:19:27;;;;;;;11.90;2.58;;;;;;;1.11;91.28;100766.81;4665986;30;20035;-82
2022/04/09 04:21:52;;;;;;;13.30;2.78;;;;;;;1.34;91.63;100812.03;4665872;30;20046;-81
2022/04/09 04:24:23;;;;;;;12.80;2.60;;;;;;;1.43;91.66;100838.06;4665539;30;20045;-81
2022/04/09 04:26:48;;;;;;;16.93;3.87;;;;;;;1.28;92.09;100819.78;4678589;30;20528;-81
2022/04/09 04:29:14;;;;;;;11.68;2.25;;;;;;;0.84;92.13;100748.00;4665731;30;20128;-81
2022/04/09 04:31:45;;;;;;;13.00;2.85;;;;;;;1.44;92.27;100846.53;4664009;30;20046;-85
2022/04/09 04:34:10;;;;;;;11.25;2.58;;;;;;;0.35;91.61;100665.31;4665227;30;20042;-86
2022/04/09 04:36:44;;;;;;;16.10;2.75;;;;;;;1.47;92.03;100845.63;4678566;30;20030;-86
2022/04/09 04:39:28;;;;;;;13.07;2.45;;;;;;;1.05;91.77;100785.59;4678344;30;20080;-82
2022/04/09 04:41:56;;;;;;;9.40;2.45;;;;;;;0.90;91.79;100764.81;4665248;30;20500;-84
2022/04/09 04:44:28;;;;;;;11.85;2.33;;;;;;;0.22;91.56;100652.06;4664269;30;20370;-85
2022/04/09 04:47:05;;;;;;;9.73;2.30;;;;;;;0.27;91.70;100659.56;4664195;30;20041;-85
2022/04/09 04:49:31;;;;;;;15.80;3.15;;;;;;;1.05;91.59;100792.38;4665478;30;20023;-80
2022/04/09 04:51:56;;;;;;;11.02;2.75;;;;;;;1.46;91.72;100860.03;4665342;30;20026;-81
2022/04/09 04:54:22;;;;;;;16.52;2.85;;;;;;;1.28;91.29;100838.47;4665090;30;20026;-86
2022/04/09 04:56:47;;;;;;;11.38;2.83;;;;;;;1.10;91.92;100823.66;4664340;30;20043;-81
2022/04/09 04:59:15;;;;;;;13.00;2.78;;;;;;;1.45;91.64;100881.28;4665427;30;20026;-80
2022/04/09 05:01:40;;;;;;;11.25;2.80;;;;;;;1.41;91.82;100864.44;4665350;30;20044;-83
2022/04/09 05:04:10;;;;;;;11.40;3.10;;;;;;;1.30;91.78;100851.13;4665317;30;20038;-85
2022/04/09 05:06:35;;;;;;;9.90;2.97;;;;;;;1.21;91.34;100834.38;4665178;30;20031;-85
2022/04/09 05:09:00;;;;;;;15.40;3.47;;;;;;;1.51;91.70;100885.41;4665120;30;20038;-83
2022/04/09 05:11:25;;;;;;;15.70;2.90;;;;;;;1.53;91.35;100887.03;4663390;30;20173;-87
2022/04/09 05:13:53;;;;;;;9.05;2.75;;;;;;;1.56;91.47;100894.56;4665025;30;20031;-82
2022/04/09 05:16:18;;;;;;;12.30;2.90;;;;;;;1.38;91.48;100869.59;4665229;30;20026;-81
2022/04/09 05:18:46;;;;;;;13.35;2.72;;;;;;;1.65;91.29;100908.78;4665289;30;20114;-86
2022/04/09 05:21:12;;;;;;;12.25;3.05;;;;;;;1.67;91.02;100912.13;4665252;30;20038;-81
2022/04/09 05:23:49;;;;;;;12.25;3.05;;;;;;;0.51;90.56;100703.91;4692851;25;20553;-86
2022/04/09 05:26:21;;;;;;;14.75;2.97;;;;;;;0.68;90.35;100709.38;4682349;30;20046;-81
2022/04/09 05:45:22;;;;;;;8.57;2.50;;;;;;;1.98;87.43;100884.19;4682578;30;20081;-81
2022/04/09 05:48:03;;;;;;;;;;;;;;;;;;;;;
2022/04/09 05:50:29;;;;;;;12.18;2.78;;;;;;;2.39;86.79;100948.47;4681827;30;20044;-81
2022/04/09 05:52:55;;;;;;;14.77;3.92;;;;;;;1.65;86.44;100822.25;4681871;30;20466;-80
2022/04/09 05:55:29;;;;;;;13.82;3.55;;;;;;;1.36;86.16;100769.56;4680366;25;20058;-80
2022/04/09 05:57:55;;;;;;;13.07;3.35;;;;;;;1.35;85.56;100763.63;4664881;30;20052;-82
2022/04/09 06:00:34;;;;;;;9.80;2.58;;;;;;;2.25;85.86;100916.53;4665033;30;20030;-80
2022/04/09 06:03:07;;;;;;;8.77;2.28;;;;;;;1.32;85.44;100781.53;4664746;30;20031;-82
2022/04/09 06:05:32;;;;;;;12.70;3.25;;;;;;;1.85;85.85;100882.81;4664984;30;20031;-81
2022/04/09 06:08:10;;;;;;;10.15;2.67;;;;;;;2.65;86.17;100968.13;4664675;30;20064;-82
2022/04/09 06:10:38;;;;;;;13.48;2.70;;;;;;;2.88;82.32;100797.44;4664979;30;20049;-82
2022/04/09 06:16:12;;;;;;;8.85;2.33;;;;;;;5.01;75.33;100816.16;4704240;25;20507;-82
2022/04/09 06:18:53;;;;;;;9.63;2.88;;;;;;;5.52;72.93;100827.75;4701911;30;20025;-82
2022/04/09 06:21:36;;;;;;;7.67;2.50;;;;;;;6.59;69.54;100862.38;4702326;30;20030;-82
2022/04/09 06:24:08;;;;;;;10.70;2.30;;;;;;;6.09;67.54;100842.38;4701837;30;20590;-81
2022/04/09 06:26:34;;;;;;;12.05;2.22;;;;;;;5.77;69.96;100907.78;4701529;30;20033;-81
2022/04/09 06:34:08;;;;;;;13.60;3.10;;;;;;;3.87;76.25;100877.56;4683270;30;20057;-84
2022/04/09 06:37:05;;;;;;;10.88;2.78;;;;;;;3.53;77.50;100853.13;4684548;30;20484;-80
2022/04/09 06:39:31;;;;;;;13.77;2.72;;;;;;;4.56;78.62;101050.66;4680624;30;20109;-81
2022/04/09 06:41:59;;;;;;;11.95;2.83;;;;;;;4.52;79.74;101053.34;4684504;30;20491;-81
2022/04/09 06:44:39;;;;;;;13.95;2.55;;;;;;;3.31;80.27;100865.78;4684365;30;20124;-78
2022/04/09 06:47:56;;;;;;;12.23;3.70;;;;;;;4.42;80.94;101068.16;4684540;30;20026;-81
2022/04/09 06:50:39;;;;;;;12.75;3.10;;;;;;;3.93;81.15;101010.16;4633017;30;20055;-80
2022/04/09 06:53:05;;;;;;;11.00;2.58;;;;;;;4.24;81.88;101071.38;4631494;31;20058;-80
2022/04/09 06:56:11;;;;;;;12.35;3.78;;;;;;;4.19;82.95;101091.94;4809362;25;20055;-85
2022/04/09 06:58:54;;;;;;;13.27;2.97;;;;;;;3.59;83.60;101036.78;4665516;30;20392;-83
2022/04/09 07:01:20;;;;;;;13.70;2.75;;;;;;;3.50;83.90;101056.66;4667105;30;20054;-83
2022/04/09 07:03:55;;;;;;;10.75;3.08;;;;;;;2.76;84.72;100938.09;4667113;30;20118;-83
2022/04/09 07:10:15;;;;;;;8.77;2.78;;;;;;;3.91;86.07;101107.31;4667189;30;20078;-85
2022/04/09 07:13:02;;;;;;;9.40;2.85;;;;;;;3.94;87.18;101106.41;4666718;30;20467;-83
2022/04/09 07:15:28;;;;;;;12.45;3.30;;;;;;;3.36;87.60;101014.53;4651585;30;20038;-83
2022/04/09 07:18:25;;;;;;;11.55;3.30;;;;;;;2.95;87.27;100938.34;4667042;30;20043;-83
2022/04/09 07:31:18;;;;;;;11.95;3.95;;;;;;;3.50;86.99;100919.63;4666988;30;20069;-84
2022/04/09 07:37:06;;;;;;;12.35;5.03;;;;;;;4.15;86.62;100929.38;4666932;30;20523;-83
2022/04/09 07:39:59;;;;;;;14.32;5.05;;;;;;;5.62;85.66;101121.09;4666481;30;20070;-83
2022/04/09 07:50:07;;;;;;;9.63;2.67;;;;;;;6.33;80.07;101120.84;4666466;30;20073;-84
2022/04/09 07:56:16;;;;;;;6.88;2.83;;;;;;;6.40;80.48;101125.75;4665937;30;20126;-84
2022/04/09 07:58:45;;;;;;;12.23;2.78;;;;;;;5.95;79.44;101052.34;4666062;30;20031;-83
2022/04/09 08:05:01;;;;;;;11.48;2.90;;;;;;;6.76;78.49;101124.19;4666159;30;20126;-83
2022/04/09 08:11:30;;;;;;;9.98;2.97;;;;;;;7.11;78.00;101132.97;4666256;30;20097;-84
2022/04/09 08:24:15;;;;;;;9.77;2.60;;;;;;;6.57;71.27;100979.59;4665709;30;20046;-83
2022/04/09 08:45:36;;;;;;;4.32;1.13;;;;;;;6.14;67.60;101085.75;4699698;30;20056;-83
2022/04/09 08:51:27;;;;;;;3.50;1.10;;;;;;;6.21;69.00;101135.91;4699847;30;20055;-83
2022/04/09 08:54:34;;;;;;;4.70;1.17;;;;;;;6.33;70.81;101213.19;4697963;30;20045;-82
2022/04/09 08:57:12;;;;;;;5.85;1.40;;;;;;;5.34;72.94;101099.06;4699829;30;20056;-84
2022/04/09 09:02:25;;;;;;;4.68;1.80;;;;;;;4.66;73.63;101056.28;5628462;25;20386;-85
2022/04/09 09:08:57;;;;;;;7.38;1.52;;;;;;;5.34;75.36;101221.97;4665294;30;20061;-83
2022/04/09 11:35:49;;;;;;;3.83;0.80;;;;;;;8.19;44.34;101059.41;4663948;30;20969;-80
2022/04/09 12:14:09;;;;;;;2.88;0.73;;;;;;;9.41;42.68;101278.16;2995447;24;20089;-82
2022/04/09 12:17:22;;;;;;;3.63;0.93;;;;;;;9.73;42.99;101292.00;4700289;30;20100;-81
2022/04/09 12:19:53;;;;;;;2.42;0.93;;;;;;;8.72;42.01;101128.81;4699696;30;20057;-81
2022/04/09 12:22:22;;;;;;;7.30;1.50;;;;;;;8.73;50.87;101138.22;4700099;30;20037;-80
2022/04/09 12:25:09;;;;;;;5.80;1.30;;;;;;;9.34;53.89;101327.50;4700097;30;20063;-82
2022/04/09 12:27:54;;;;;;;4.15;1.63;;;;;;;8.81;55.62;101331.78;4700181;30;20037;-81
2022/04/09 12:30:51;;;;;;;;;;;;;;;;;;;;;
2022/04/09 12:33:22;;;;;;;6.75;1.75;;;;;;;7.92;58.66;101268.13;4699801;30;20514;-82
2022/04/09 12:36:26;;;;;;;5.40;1.30;;;;;;;7.12;59.01;101162.88;4699904;30;20033;-83
2022/04/09 12:38:54;;;;;;;7.20;1.50;;;;;;;7.68;59.62;101262.34;4700259;30;20049;-82
2022/04/09 12:47:18;;;;;;;4.95;1.60;;;;;;;8.66;59.82;101329.97;4665999;30;20419;-81
2022/04/09 12:50:30;;;;;;;6.20;1.17;;;;;;;8.67;56.69;101333.38;4663999;30;20050;-81
2022/04/09 12:53:26;;;;;;;5.90;1.63;;;;;;;8.60;58.09;101336.22;4664177;30;20086;-82
2022/04/09 14:26:19;;;;;;;3.55;0.82;;;;;;;8.57;43.85;101272.00;4666945;30;20065;-80
2022/04/09 14:29:08;;;;;;;3.30;1.00;;;;;;;9.39;45.13;101385.66;4666455;30;20050;-80
2022/04/09 14:35:32;;;;;;;3.83;1.00;;;;;;;8.60;42.01;101204.94;4668171;30;20112;-81
2022/04/09 14:38:55;;;;;;;3.17;0.93;;;;;;;8.54;41.93;101182.03;4640631;30;20137;-88
2022/04/09 14:41:36;;;;;;;3.38;1.60;;;;;;;9.26;44.17;101322.75;4614795;31;20059;-80
2022/04/09 14:47:25;;;;;;;4.80;1.33;;;;;;;9.35;44.18;101337.75;4615346;31;20086;-88
2022/04/09 14:49:51;;;;;;;3.40;1.02;;;;;;;9.11;43.61;101297.72;4615106;31;20039;-87
2022/04/09 14:56:18;;;;;;;6.03;1.35;;;;;;;9.68;43.29;101398.88;4614932;31;20642;-81
2022/04/09 14:59:25;;;;;;;3.70;1.10;;;;;;;9.56;43.83;101402.06;4600905;31;20060;-82
2022/04/09 15:02:31;;;;;;;4.80;1.10;;;;;;;9.64;44.05;101399.94;4600828;31;20126;-81
2022/04/09 15:06:01;;;;;;;4.45;1.00;;;;;;;9.72;44.47;101402.94;4614705;31;20052;-82
2022/04/09 15:15:24;;;;;;;2.40;1.08;;;;;;;8.86;44.53;101262.06;4565386;31;20060;-81
2022/04/09 15:21:32;;;;;;;4.30;1.08;;;;;;;8.68;44.59;101227.72;4598187;31;20056;-81
2022/04/09 15:28:29;;;;;;;4.68;1.10;;;;;;;9.71;45.68;101394.38;4614052;31;20073;-82
2022/04/09 15:34:43;;;;;;;4.28;1.10;;;;;;;9.72;44.53;101401.19;4597829;31;20051;-82
2022/04/09 15:37:27;;;;;;;2.85;1.00;;;;;;;8.63;45.18;101239.97;4597301;31;20048;-81
2022/04/09 15:40:08;;;;;;;5.90;1.17;;;;;;;9.33;44.72;101334.41;4597477;31;20531;-81
2022/04/09 15:45:42;;;;;;;5.90;1.40;;;;;;;9.41;44.35;101358.06;4947908;25;20080;-80
2022/04/09 15:48:11;;;;;;;5.32;1.30;;;;;;;9.04;44.17;101327.28;4699490;30;20041;-82
2022/04/09 15:50:48;;;;;;;3.00;1.00;;;;;;;8.49;43.91;101257.84;4699830;30;20045;-82
2022/04/09 15:56:41;;;;;;;3.45;1.10;;;;;;;8.28;44.43;101250.19;4700722;30;20056;-82
2022/04/09 16:08:35;;;;;;;3.60;0.80;;;;;;;9.23;45.62;101435.44;4700691;30;20144;-80
2022/04/09 16:14:40;;;;;;;5.18;1.00;;;;;;;8.58;45.65;101379.22;4700489;30;20080;-82
2022/04/09 16:17:05;;;;;;;5.53;1.40;;;;;;;8.24;45.35;101345.56;4700040;30;20116;-81
2022/04/09 16:19:49;;;;;;;3.35;1.10;;;;;;;7.78;45.61;101297.94;4700192;30;20116;-81
2022/04/09 16:26:16;;;;;;;6.47;1.77;;;;;;;8.47;46.95;101468.13;4700082;30;20110;-82
2022/04/09 16:32:07;;;;;;;7.60;2.15;;;;;;;5.97;61.10;101351.28;4700160;30;20096;-83
2022/04/09 16:34:41;;;;;;;6.38;2.80;;;;;;;5.55;63.89;101360.44;4700183;30;20407;-83
2022/04/09 16:37:34;;;;;;;4.68;2.30;;;;;;;6.49;66.16;101552.09;4700114;30;20479;-82
2022/04/09 16:40:08;;;;;;;6.90;2.70;;;;;;;4.91;71.00;101399.16;4663195;30;20112;-82
2022/04/09 16:42:37;;;;;;;5.97;2.80;;;;;;;5.00;73.53;101506.38;4663543;30;20108;-83
2022/04/09 16:48:23;;;;;;;4.45;2.95;;;;;;;4.64;79.54;101538.13;4663735;30;20135;-84
2022/04/09 16:51:29;;;;;;;7.22;3.63;;;;;;;4.85;80.04;101599.78;4663581;30;20513;-83
2022/04/09 17:06:14;;;;;;;5.53;3.10;;;;;;;5.16;81.93;101569.06;4628993;30;20665;-81
2022/04/09 17:08:10;;;;;;;6.85;3.00;;;;;;;4.23;82.53;101371.34;4621939;31;20047;-81
2022/04/09 17:11:21;;;;;;;4.88;3.10;;;;;;;5.51;80.91;101567.19;4629189;31;20497;-83
2022/04/09 17:14:38;;;;;;;5.40;2.78;;;;;;;4.10;79.37;101339.31;4629126;30;20552;-80
2022/04/09 17:20:04;;;;;;;6.95;2.80;;;;;;;4.88;79.45;101499.88;4629421;31;20098;-80
2022/04/09 17:23:00;;;;;;;5.65;3.00;;;;;;;5.23;77.96;101561.22;4629378;31;20520;-80
2022/04/09 17:28:44;;;;;;;5.40;2.78;;;;;;;3.86;76.58;101364.66;4628770;31;20047;-80
2022/04/09 17:37:38;;;;;;;6.47;2.67;;;;;;;3.62;78.21;101373.78;4612758;31;20051;-80
2022/04/09 17:53:43;;;;;;;6.93;3.10;;;;;;;4.12;79.38;101501.94;4612398;31;20358;-80
2022/04/09 17:59:45;;;;;;;5.07;3.10;;;;;;;3.98;79.73;101497.19;4612412;31;20494;-79
2022/04/09 18:02:30;;;;;;;6.70;3.25;;;;;;;4.36;79.74;101577.19;4612170;31;20044;-81
2022/04/09 18:09:16;;;;;;;6.82;3.03;;;;;;;4.22;80.13;101582.63;4640528;30;20061;-80
2022/04/09 18:22:05;;;;;;;7.05;3.38;;;;;;;4.05;80.99;101605.22;4658225;30;20404;-80
2022/04/09 18:24:53;;;;;;;8.05;3.58;;;;;;;4.02;80.82;101600.16;4685060;30;20046;-80
2022/04/09 18:27:30;;;;;;;7.00;3.30;;;;;;;3.57;81.02;101536.50;4654015;30;20099;-79
2022/04/09 18:29:56;;;;;;;7.45;3.35;;;;;;;3.94;81.33;101604.66;4685028;30;20026;-79
2022/04/09 18:32:46;;;;;;;8.90;3.17;;;;;;;3.45;80.35;101529.97;4684772;30;20038;-79
2022/04/09 18:38:50;;;;;;;6.00;3.40;;;;;;;3.78;81.17;101616.06;4684914;30;20526;-80
2022/04/09 18:41:41;;;;;;;;;;;;;;;;;;;;;
2022/04/09 18:44:22;;;;;;;6.73;3.00;;;;;;;2.76;80.97;101474.44;4670094;30;20484;-79
2022/04/09 18:47:15;;;;;;;5.43;3.10;;;;;;;3.02;81.21;101527.47;4684471;30;20300;-80
2022/04/09 18:53:02;;;;;;;5.57;2.92;;;;;;;2.32;81.10;101437.06;4684407;30;20526;-89
2022/04/09 18:56:17;;;;;;;8.85;3.80;;;;;;;3.51;80.77;101641.31;4684323;30;20038;-79
2022/04/09 18:58:42;;;;;;;8.75;4.07;;;;;;;2.55;81.53;101495.25;4684244;30;20181;-81
2022/04/09 19:01:08;;;;;;;7.60;3.75;;;;;;;3.41;81.52;101644.94;4684270;30;20105;-80
2022/04/09 19:03:46;;;;;;;9.95;4.05;;;;;;;2.25;81.32;101460.97;4684792;30;20058;-80
2022/04/09 19:06:37;;;;;;;7.63;4.35;;;;;;;3.39;81.50;101650.06;4684213;30;20507;-79
2022/04/09 19:09:06;;;;;;;7.57;4.05;;;;;;;2.61;81.83;101530.84;4684287;30;20041;-79
2022/04/09 19:12:12;;;;;;;9.70;3.70;;;;;;;3.33;81.97;101659.56;4683811;30;20468;-79
2022/04/09 19:15:03;;;;;;;11.32;4.43;;;;;;;2.05;81.89;101463.06;4684361;30;20065;-79
2022/04/09 19:17:31;;;;;;;13.00;5.13;;;;;;;2.04;81.83;101471.56;4631223;31;20051;-79
2022/04/09 19:23:36;;;;;;;11.50;4.75;;;;;;;3.17;82.26;101682.84;4630812;30;20046;-80
2022/04/09 19:26:02;;;;;;;7.28;3.95;;;;;;;1.81;82.61;101471.97;4630852;31;20122;-79
2022/04/09 19:32:43;;;;;;;10.85;6.90;;;;;;;1.76;82.46;101487.28;4611615;31;20046;-79
2022/04/09 19:35:52;;;;;;;10.35;7.55;;;;;;;2.94;83.25;101700.25;4581638;31;20040;-80
2022/04/09 19:38:27;;;;;;;12.52;7.85;;;;;;;1.87;83.56;101536.38;4580901;31;20044;-80
2022/04/09 19:44:37;;;;;;;10.63;6.05;;;;;;;1.59;84.26;101510.50;4580789;31;20040;-79
2022/04/09 19:47:42;;;;;;;9.15;5.25;;;;;;;1.53;83.80;101492.75;4580720;31;20048;-80
2022/04/09 19:50:23;;;;;;;7.15;4.47;;;;;;;2.75;84.30;101696.34;4516779;31;20060;-79
2022/04/09 19:53:28;;;;;;;9.32;4.43;;;;;;;2.72;84.26;101696.41;4531721;31;20050;-80
2022/04/09 19:56:02;;;;;;;11.40;4.53;;;;;;;1.40;84.59;101494.66;4564358;31;20139;-80
2022/04/09 19:58:55;;;;;;;7.20;4.43;;;;;;;2.59;84.57;101699.16;4563870;31;20064;-80
2022/04/09 20:04:23;;;;;;;9.40;4.90;;;;;;;2.14;85.43;101639.53;4535704;31;20106;-81
2022/04/09 20:13:41;;;;;;;8.95;5.28;;;;;;;1.32;86.56;101526.16;4646930;30;20205;-80
2022/04/09 20:16:06;;;;;;;10.80;5.43;;;;;;;1.89;86.93;101639.06;4647075;30;20045;-81
2022/04/09 20:18:32;;;;;;;9.32;5.88;;;;;;;1.33;87.06;101558.34;4638568;30;20036;-79
2022/04/09 20:21:04;;;;;;;11.93;5.28;;;;;;;1.89;87.57;101645.84;4630057;31;20106;-81
2022/04/09 20:23:32;;;;;;;9.20;5.30;;;;;;;1.91;88.04;101651.78;4629995;31;20035;-81
2022/04/09 20:29:55;;;;;;;9.70;5.60;;;;;;;2.26;88.31;101731.09;4663521;30;20466;-80
2022/04/09 20:32:29;;;;;;;11.05;5.72;;;;;;;1.83;88.16;101668.84;4649162;30;20121;-80
2022/04/09 20:35:48;;;;;;;11.57;5.82;;;;;;;2.16;88.29;101734.63;4663430;30;20050;-79
2022/04/09 20:45:39;;;;;;;11.50;6.80;;;;;;;2.04;89.23;101737.34;4563143;31;20194;-81
2022/04/09 20:48:15;;;;;;;10.05;5.85;;;;;;;0.85;89.60;101540.28;4548856;31;20088;-80
2022/04/09 20:50:48;;;;;;;9.75;5.43;;;;;;;0.93;89.93;101569.03;4546921;31;20131;-80
2022/04/09 20:54:13;;;;;;;;;;;;;;;;;;;;;
2022/04/09 21:26:14;;;;;;;14.23;7.28;;;;;;;1.71;90.32;101758.97;4699486;30;20019;-80
2022/04/09 21:28:58;;;;;;;11.65;7.15;;;;;;;1.66;91.09;101766.66;4699239;30;20050;-80
2022/04/09 21:31:44;;;;;;;11.15;6.53;;;;;;;0.30;90.62;101562.91;4699085;30;20096;-80
2022/04/09 21:34:09;;;;;;;10.98;6.32;;;;;;;0.56;91.38;101599.06;4698730;30;20056;-80
2022/04/09 21:36:37;;;;;;;10.98;6.75;;;;;;;1.17;91.48;101710.34;4698938;30;20034;-80
2022/04/09 21:39:27;;;;;;;15.02;6.60;;;;;;;1.59;91.47;101779.47;4699284;30;20533;-78
2022/04/09 21:42:57;;;;;;;11.60;5.75;;;;;;;0.31;91.53;101583.19;4699271;30;20038;-80
2022/04/09 21:45:29;;;;;;;11.85;6.03;;;;;;;1.41;91.60;101768.63;4662644;30;20500;-80
2022/04/09 21:48:28;;;;;;;11.00;5.97;;;;;;;1.51;91.49;101787.19;4663908;30;20152;-80
2022/04/09 21:50:56;;;;;;;10.52;5.57;;;;;;;0.48;91.45;101624.53;4666216;30;20050;-80
2022/04/09 21:54:09;;;;;;;13.60;6.57;;;;;;;1.49;91.64;101795.72;4651988;30;20042;-80
2022/04/09 22:03:22;;;;;;;13.00;6.13;;;;;;;0.30;91.38;101606.09;4666519;30;20045;-80
2022/04/09 22:06:30;;;;;;;12.88;6.03;;;;;;;0.43;91.26;101630.53;4666049;30;20038;-79
2022/04/09 22:09:02;;;;;;;11.15;5.70;;;;;;;0.25;91.68;101601.88;4632104;31;20039;-80
2022/04/09 22:11:36;;;;;;;12.63;5.65;;;;;;;0.40;91.20;101625.47;4631662;30;20528;-80
2022/04/09 22:14:09;;;;;;;11.90;5.50;;;;;;;0.12;90.99;101586.75;4632108;31;20079;-81
2022/04/09 22:17:21;;;;;;;12.23;5.20;;;;;;;1.41;91.44;101795.78;4631788;31;20086;-80
2022/04/09 22:20:23;;;;;;;11.73;5.28;;;;;;;1.39;91.11;101797.50;4620784;31;20483;-81
2022/04/09 22:25:56;;;;;;;12.98;5.78;;;;;;;0.86;91.46;101725.03;4598055;31;20108;-80
2022/04/09 22:28:30;;;;;;;13.00;5.43;;;;;;;0.56;91.14;101680.38;4598543;31;20044;-80
2022/04/09 22:30:55;;;;;;;11.48;5.63;;;;;;;0.77;91.38;101725.13;4598051;31;20088;-82
2022/04/09 22:33:34;;;;;;;10.60;5.25;;;;;;;1.27;91.50;101802.69;4606434;31;20519;-80
2022/04/09 22:36:45;;;;;;;12.18;6.30;;;;;;;1.34;91.39;101810.25;4614894;31;20502;-80
2022/04/09 22:39:26;;;;;;;11.10;5.47;;;;;;;0.19;91.05;101623.91;4614707;31;20497;-79
2022/04/09 22:41:54;;;;;;;12.65;5.82;;;;;;;0.18;90.91;101643.41;4621942;30;20071;-80
2022/04/09 22:44:41;;;;;;;11.55;6.07;;;;;;;1.21;91.27;101813.78;4668770;30;20384;-81
2022/04/09 22:47:25;;;;;;;15.43;6.32;;;;;;;-0.01;91.09;101621.53;4684314;30;20050;-81
2022/04/09 22:49:50;;;;;;;12.48;6.25;;;;;;;1.10;91.34;101821.50;4684433;30;20488;-79